createdAt,value
2023-02-15T00:01:26.295Z,50.17
2023-02-15T00:03:54.663Z,49.83
2023-02-15T00:06:21.884Z,47.90
2023-02-15T00:08:49.052Z,49.90
2023-02-15T00:11:17.421Z,49.23
2023-02-15T00:13:44.448Z,47.50
2023-02-15T00:16:13.155Z,48.70
2023-02-15T00:18:40.372Z,50.10
2023-02-15T00:21:10.713Z,54.80
2023-02-15T00:23:37.942Z,47.50
2023-02-15T00:26:06.868Z,42.87
2023-02-15T00:28:34.078Z,44.47
2023-02-15T00:31:05.365Z,44.17
2023-02-15T00:33:32.592Z,44.90
2023-02-15T00:35:59.968Z,43.60
2023-02-15T00:38:29.886Z,46.20
2023-02-15T00:40:58.238Z,42.90
2023-02-15T00:43:25.321Z,44.00
2023-02-15T00:45:52.684Z,42.77
2023-02-15T00:48:19.944Z,44.93
2023-02-15T00:50:47.318Z,45.40
2023-02-15T00:53:14.346Z,48.93
2023-02-15T00:55:42.657Z,44.07
2023-02-15T00:58:10.048Z,46.40
2023-02-15T01:00:37.883Z,48.43
2023-02-15T01:03:05.045Z,47.50
2023-02-15T01:05:33.240Z,46.23
2023-02-15T01:08:00.717Z,47.83
2023-02-15T01:10:28.558Z,45.70
2023-02-15T01:12:57.688Z,38.43
2023-02-15T01:15:25.258Z,47.17
2023-02-15T01:17:53.695Z,44.17
2023-02-15T01:20:21.694Z,47.87
2023-02-15T01:22:50.643Z,42.30
2023-02-15T01:25:17.871Z,43.97
2023-02-15T01:27:44.963Z,39.63
2023-02-15T01:30:14.763Z,38.37
2023-02-15T01:32:42.230Z,42.13
2023-02-15T01:35:09.492Z,42.20
2023-02-15T01:37:36.610Z,38.43
2023-02-15T01:40:06.654Z,43.33
2023-02-15T01:42:33.521Z,44.63
2023-02-15T01:45:02.311Z,43.33
2023-02-15T01:47:37.217Z,43.53
2023-02-15T01:50:10.896Z,40.10
2023-02-15T01:52:40.115Z,44.63
2023-02-15T01:55:09.182Z,40.30
2023-02-15T01:57:36.726Z,40.00
2023-02-15T02:00:07.060Z,43.33
2023-02-15T02:02:35.882Z,39.20
2023-02-15T02:05:07.402Z,39.63
2023-02-15T02:07:39.076Z,37.47
2023-02-15T02:10:08.390Z,39.30
2023-02-15T02:12:38.048Z,38.10
2023-02-15T02:15:05.635Z,40.83
2023-02-15T02:17:43.710Z,37.90
2023-02-15T02:20:37.242Z,38.73
2023-02-15T02:23:23.964Z,40.77
2023-02-15T02:26:32.949Z,40.83
2023-02-15T02:29:26.600Z,38.53
2023-02-15T02:32:22.922Z,40.53
2023-02-15T02:34:54.318Z,37.80
2023-02-15T02:37:28.911Z,39.20
2023-02-15T02:40:04.758Z,46.40
2023-02-15T02:42:40.022Z,45.27
2023-02-15T02:45:10.444Z,42.50
2023-02-15T02:47:41.374Z,46.93
2023-02-15T02:50:13.498Z,43.43
2023-02-15T02:52:42.833Z,46.10
2023-02-15T02:55:14.146Z,42.70
2023-02-15T02:57:52.515Z,39.27
2023-02-15T03:00:20.262Z,42.70
2023-02-15T03:02:49.925Z,42.87
2023-02-15T03:05:22.877Z,51.93
2023-02-15T03:07:52.884Z,47.10
2023-02-15T03:10:24.027Z,45.23
2023-02-15T03:12:52.688Z,54.17
2023-02-15T03:15:23.588Z,45.80
2023-02-15T03:17:56.579Z,50.43
2023-02-15T03:20:29.569Z,47.93
2023-02-15T03:23:00.829Z,44.73
2023-02-15T03:25:33.471Z,44.33
2023-02-15T03:28:03.171Z,47.40
2023-02-15T03:30:32.076Z,46.90
2023-02-15T03:33:00.966Z,49.30
2023-02-15T03:35:37.007Z,55.60
2023-02-15T03:38:09.262Z,50.27
2023-02-15T03:40:58.577Z,50.20
2023-02-15T03:43:31.477Z,49.17
2023-02-15T03:46:05.397Z,48.43
2023-02-15T03:48:35.948Z,52.60
2023-02-15T03:51:27.117Z,48.70
2023-02-15T03:53:55.455Z,49.80
2023-02-15T03:56:22.337Z,46.17
2023-02-15T03:59:07.679Z,54.07
2023-02-15T04:01:56.981Z,50.73
2023-02-15T04:04:26.165Z,52.70
2023-02-15T04:06:54.361Z,51.13
2023-02-15T04:09:39.683Z,48.50
2023-02-15T04:12:06.557Z,51.83
2023-02-15T04:14:51.974Z,52.73
2023-02-15T04:17:19.204Z,53.80
2023-02-15T04:20:04.637Z,46.77
2023-02-15T04:22:51.572Z,52.13
2023-02-15T04:25:18.643Z,49.90
2023-02-15T04:27:47.881Z,49.73
2023-02-15T04:30:15.956Z,49.33
2023-02-15T04:32:43.120Z,51.07
2023-02-15T04:35:10.480Z,50.93
2023-02-15T04:37:39.287Z,52.13
2023-02-15T04:40:07.939Z,48.43
2023-02-15T04:42:34.883Z,54.30
2023-02-15T04:45:01.764Z,51.43
2023-02-15T04:47:28.725Z,54.43
2023-02-15T04:49:58.011Z,55.83
2023-02-15T04:52:25.329Z,56.17
2023-02-15T04:54:53.529Z,53.33
2023-02-15T04:57:20.380Z,48.70
2023-02-15T04:59:47.286Z,55.47
2023-02-15T05:02:14.334Z,62.67
2023-02-15T05:04:41.184Z,51.77
2023-02-15T05:07:08.050Z,50.33
2023-02-15T05:09:34.967Z,56.53
2023-02-15T05:12:03.178Z,52.73
2023-02-15T05:14:30.039Z,55.87
2023-02-15T05:16:57.035Z,55.07
2023-02-15T05:19:25.451Z,55.77
2023-02-15T05:21:52.352Z,53.17
2023-02-15T05:24:37.965Z,54.67
2023-02-15T05:27:24.628Z,60.33
2023-02-15T05:29:51.752Z,53.50
2023-02-15T05:32:18.812Z,55.07
2023-02-15T05:34:45.705Z,60.70
2023-02-15T05:37:12.592Z,53.90
2023-02-15T05:39:39.545Z,57.47
2023-02-15T05:42:07.813Z,62.63
2023-02-15T05:44:34.740Z,54.83
2023-02-15T05:47:03.822Z,52.87
2023-02-15T05:49:31.494Z,57.97
2023-02-15T05:51:58.351Z,61.67
2023-02-15T05:54:25.189Z,63.73
2023-02-15T05:56:52.077Z,65.80
2023-02-15T05:59:20.288Z,67.23
2023-02-15T06:01:47.114Z,64.63
2023-02-15T06:04:14.211Z,61.20
2023-02-15T06:06:41.097Z,57.90
2023-02-15T06:09:08.058Z,64.17
2023-02-15T06:11:34.869Z,65.77
2023-02-15T06:14:01.757Z,54.33
2023-02-15T06:16:30.072Z,66.60
2023-02-15T06:18:57.502Z,55.07
2023-02-15T06:21:24.389Z,48.57
2023-02-15T06:23:51.272Z,54.93
2023-02-15T06:26:18.145Z,57.13
2023-02-15T06:28:45.078Z,59.80
2023-02-15T06:31:11.970Z,61.23
2023-02-15T06:33:40.269Z,57.97
2023-02-15T06:36:07.443Z,60.90
2023-02-15T06:38:34.469Z,63.43
2023-02-15T06:41:01.421Z,75.10
2023-02-15T06:43:28.239Z,66.90
2023-02-15T06:45:57.967Z,63.93
2023-02-15T06:48:24.840Z,66.50
2023-02-15T06:50:53.085Z,77.23
2023-02-15T06:53:19.931Z,67.97
2023-02-15T06:55:46.829Z,86.60
2023-02-15T06:58:13.688Z,88.97
2023-02-15T07:00:40.598Z,71.97
2023-02-15T07:03:07.527Z,81.67
2023-02-15T07:05:35.234Z,79.77
2023-02-15T07:08:03.904Z,70.63
2023-02-15T07:10:30.824Z,85.30
2023-02-15T07:12:57.736Z,78.93
2023-02-15T07:15:24.732Z,93.87
2023-02-15T07:17:52.042Z,87.33
2023-02-15T07:20:20.913Z,79.00
2023-02-15T07:22:48.006Z,136.37
2023-02-15T07:25:17.019Z,100.30
2023-02-15T07:27:45.556Z,98.40
2023-02-15T07:30:15.111Z,147.67
2023-02-15T07:33:04.738Z,125.33
2023-02-15T07:35:32.008Z,109.47
2023-02-15T07:37:58.837Z,143.07
2023-02-15T07:40:32.470Z,163.57
2023-02-15T07:43:00.023Z,116.97
2023-02-15T07:45:27.159Z,195.10
2023-02-15T07:47:54.041Z,131.47
2023-02-15T07:50:20.968Z,74.73
2023-02-15T07:52:47.812Z,111.70
2023-02-15T07:55:14.950Z,168.23
2023-02-15T07:57:45.482Z,105.63
2023-02-15T08:00:14.193Z,185.73
2023-02-15T08:02:41.158Z,114.67
2023-02-15T08:05:08.700Z,113.83
2023-02-15T08:07:35.612Z,108.40
2023-02-15T08:10:02.584Z,102.60
2023-02-15T08:12:29.865Z,90.17
2023-02-15T08:14:58.074Z,60.43
2023-02-15T08:17:24.988Z,70.83
2023-02-15T08:19:51.847Z,59.80
2023-02-15T08:22:18.718Z,61.70
2023-02-15T08:24:45.839Z,53.87
2023-02-15T08:27:13.015Z,63.90
2023-02-15T08:29:40.477Z,48.27
2023-02-15T08:32:11.275Z,49.20
2023-02-15T08:34:40.717Z,47.03
2023-02-15T08:37:07.849Z,58.33
2023-02-15T08:39:34.986Z,42.07
2023-02-15T08:42:01.874Z,64.53
2023-02-15T08:44:28.882Z,74.07
2023-02-15T08:46:55.825Z,55.80
2023-02-15T08:49:24.996Z,77.53
2023-02-15T08:51:51.824Z,38.63
2023-02-15T08:54:21.094Z,51.37
2023-02-15T08:56:48.089Z,45.80
2023-02-15T08:59:17.264Z,47.83
2023-02-15T09:01:44.781Z,44.90
2023-02-15T09:04:11.987Z,50.23
2023-02-15T09:06:41.286Z,47.43
2023-02-15T09:09:08.913Z,63.83
2023-02-15T09:11:37.522Z,41.07
2023-02-15T09:14:06.765Z,45.87
2023-02-15T09:16:35.961Z,44.80
2023-02-15T09:19:05.513Z,59.50
2023-02-15T09:21:33.691Z,39.93
2023-02-15T09:24:04.414Z,47.80
2023-02-15T09:26:32.741Z,40.90
2023-02-15T09:29:01.929Z,48.23
2023-02-15T09:31:30.550Z,41.90
2023-02-15T09:33:59.217Z,52.77
2023-02-15T09:36:28.589Z,48.57
2023-02-15T09:38:58.489Z,45.43
2023-02-15T09:42:11.266Z,46.83
2023-02-15T09:44:52.728Z,44.77
2023-02-15T09:47:45.017Z,43.93
2023-02-15T09:50:20.391Z,42.07
2023-02-15T09:53:06.990Z,39.00
2023-02-15T09:55:49.274Z,37.53
2023-02-15T09:58:26.666Z,41.63
2023-02-15T10:01:00.376Z,38.70
2023-02-15T10:03:40.046Z,41.03
2023-02-15T10:06:34.119Z,38.93
2023-02-15T10:09:20.234Z,38.03
2023-02-15T10:12:01.670Z,33.50
2023-02-15T10:14:53.881Z,35.10
2023-02-15T10:17:32.950Z,39.47
2023-02-15T10:20:15.034Z,36.13
2023-02-15T10:22:57.041Z,42.70
2023-02-15T10:25:32.942Z,36.47
2023-02-15T10:28:06.258Z,37.80
2023-02-15T10:30:43.202Z,35.73
2023-02-15T10:33:21.054Z,49.23
2023-02-15T10:35:57.251Z,43.93
2023-02-15T10:38:33.952Z,46.37
2023-02-15T10:41:13.494Z,42.63
2023-02-15T10:43:56.493Z,44.10
2023-02-15T10:46:46.976Z,37.30
2023-02-15T10:49:36.347Z,38.50
2023-02-15T10:52:20.402Z,29.63
2023-02-15T10:54:53.801Z,32.83
2023-02-15T10:57:28.695Z,34.37
2023-02-15T11:00:08.264Z,29.30
2023-02-15T11:02:53.166Z,31.27
2023-02-15T11:05:37.072Z,30.03
2023-02-15T11:08:08.228Z,33.93
2023-02-15T11:10:39.436Z,31.93
2023-02-15T11:13:12.579Z,29.63
2023-02-15T11:15:44.088Z,37.03
2023-02-15T11:18:15.271Z,31.67
2023-02-15T11:20:48.722Z,40.40
2023-02-15T11:23:17.497Z,37.40
2023-02-15T11:25:47.207Z,40.33
2023-02-15T11:28:22.606Z,34.33
2023-02-15T11:30:54.735Z,34.57
2023-02-15T11:33:27.447Z,35.97
2023-02-15T11:36:01.470Z,34.97
2023-02-15T11:38:33.037Z,33.70
2023-02-15T11:41:04.818Z,37.13
2023-02-15T11:43:38.783Z,36.57
2023-02-15T11:46:06.820Z,41.13
2023-02-15T11:48:35.199Z,36.73
2023-02-15T11:51:04.267Z,33.47
2023-02-15T11:53:34.617Z,37.63
2023-02-15T11:56:04.658Z,36.03
2023-02-15T11:58:38.795Z,39.30
2023-02-15T12:01:15.055Z,38.17
2023-02-15T12:03:47.715Z,39.00
2023-02-15T12:06:22.255Z,35.13
2023-02-15T12:08:54.920Z,41.80
2023-02-15T12:11:27.688Z,42.03
2023-02-15T12:13:59.817Z,42.73
2023-02-15T12:16:28.370Z,39.27
2023-02-15T12:18:58.650Z,41.27
2023-02-15T12:21:28.545Z,38.50
2023-02-15T12:23:58.610Z,45.13
2023-02-15T12:26:28.000Z,46.93
2023-02-15T12:28:58.822Z,48.77
2023-02-15T12:31:31.743Z,42.50
2023-02-15T12:34:04.419Z,48.83
2023-02-15T12:36:33.384Z,55.10
2023-02-15T12:39:20.390Z,41.50
2023-02-15T12:41:59.874Z,41.90
2023-02-15T12:44:29.797Z,43.33
2023-02-15T12:46:59.443Z,43.83
2023-02-15T12:49:29.239Z,45.23
2023-02-15T12:51:57.664Z,48.33
2023-02-15T12:54:35.328Z,46.93
2023-02-15T12:57:20.963Z,56.40
2023-02-15T12:59:52.484Z,54.80
2023-02-15T13:02:28.017Z,60.03
2023-02-15T13:04:57.774Z,64.27
2023-02-15T13:07:31.111Z,57.47
2023-02-15T13:09:58.819Z,62.47
2023-02-15T13:12:29.068Z,56.97
2023-02-15T13:14:57.256Z,56.97
2023-02-15T13:17:30.399Z,60.10
2023-02-15T13:20:02.805Z,57.80
2023-02-15T13:22:36.287Z,55.73
2023-02-15T13:25:13.187Z,57.47
2023-02-15T13:27:42.413Z,60.60
2023-02-15T13:30:23.076Z,57.57
2023-02-15T13:32:53.114Z,59.20
2023-02-15T13:35:22.827Z,64.53
2023-02-15T13:38:03.861Z,59.83
2023-02-15T13:40:37.920Z,57.33
2023-02-15T13:43:20.833Z,58.67
2023-02-15T13:45:59.349Z,55.10
2023-02-15T13:48:46.054Z,62.57
2023-02-15T13:51:22.809Z,51.90
2023-02-15T13:54:22.496Z,53.20
2023-02-15T13:56:58.230Z,61.90
2023-02-15T13:59:57.119Z,52.37
2023-02-15T14:03:00.986Z,60.70
2023-02-15T14:05:44.006Z,48.47
2023-02-15T14:08:25.168Z,49.50
2023-02-15T14:11:00.860Z,47.70
2023-02-15T14:13:56.128Z,51.00
2023-02-15T14:16:34.505Z,43.50
2023-02-15T14:19:12.820Z,50.47
2023-02-15T14:21:48.437Z,49.93
2023-02-15T14:24:28.204Z,52.23
2023-02-15T14:27:05.474Z,52.50
2023-02-15T14:29:47.414Z,57.10
2023-02-15T14:32:19.507Z,52.90
2023-02-15T14:34:51.466Z,52.27
2023-02-15T14:37:27.506Z,56.00
2023-02-15T14:40:21.314Z,50.87
2023-02-15T14:42:56.620Z,50.80
2023-02-15T14:45:33.274Z,50.37
2023-02-15T14:48:10.159Z,55.63
2023-02-15T14:50:44.788Z,48.63
2023-02-15T14:53:38.449Z,49.10
2023-02-15T14:56:28.462Z,53.67
2023-02-15T14:59:02.906Z,55.60
2023-02-15T15:01:32.944Z,53.57
2023-02-15T15:04:03.447Z,51.80
2023-02-15T15:06:32.744Z,52.70
2023-02-15T15:09:09.892Z,49.03
2023-02-15T15:11:46.674Z,58.00
2023-02-15T15:14:41.836Z,53.20
2023-02-15T15:17:13.270Z,53.70
2023-02-15T15:20:05.824Z,51.37
2023-02-15T15:22:34.620Z,56.10
2023-02-15T15:25:02.557Z,56.33
2023-02-15T15:27:46.562Z,61.10
2023-02-15T15:31:00.851Z,56.47
2023-02-15T15:34:17.900Z,50.43
2023-02-15T15:37:24.525Z,60.37
2023-02-15T15:40:39.404Z,58.43
2023-02-15T15:43:42.477Z,72.23
2023-02-15T15:46:37.945Z,62.07
2023-02-15T15:49:10.577Z,62.13
2023-02-15T15:51:41.843Z,61.57
2023-02-15T15:54:16.512Z,62.17
2023-02-15T15:56:47.343Z,64.17
2023-02-15T15:59:20.513Z,59.87
2023-02-15T16:01:47.941Z,69.40
2023-02-15T16:04:26.616Z,68.93
2023-02-15T16:06:54.397Z,67.47
2023-02-15T16:09:23.908Z,63.07
2023-02-15T16:11:53.271Z,78.73
2023-02-15T16:14:27.200Z,72.93
2023-02-15T16:16:57.041Z,78.33
2023-02-15T16:19:27.826Z,75.70
2023-02-15T16:21:56.431Z,68.47
2023-02-15T16:24:42.374Z,76.40
2023-02-15T16:27:29.642Z,78.83
2023-02-15T16:29:58.026Z,72.40
2023-02-15T16:32:27.150Z,69.70
2023-02-15T16:34:56.309Z,67.83
2023-02-15T16:37:28.234Z,64.73
2023-02-15T16:39:57.758Z,66.87
2023-02-15T16:42:24.988Z,73.67
2023-02-15T16:44:55.913Z,73.70
2023-02-15T16:47:27.181Z,63.70
2023-02-15T16:49:56.958Z,68.30
2023-02-15T16:52:26.177Z,64.97
2023-02-15T16:54:56.234Z,72.83
2023-02-15T16:57:26.370Z,65.73
2023-02-15T16:59:55.429Z,60.87
2023-02-15T17:02:53.253Z,59.47
2023-02-15T17:05:19.491Z,60.13
2023-02-15T17:08:03.769Z,61.90
2023-02-15T17:10:33.312Z,59.40
2023-02-15T17:13:04.736Z,61.70
2023-02-15T17:15:34.554Z,69.30
2023-02-15T17:18:06.607Z,55.00
2023-02-15T17:20:37.077Z,66.13
2023-02-15T17:23:05.424Z,63.80
2023-02-15T17:25:40.367Z,68.77
2023-02-15T17:28:17.953Z,66.30
2023-02-15T17:30:47.197Z,66.77
2023-02-15T17:33:26.582Z,62.43
2023-02-15T17:36:09.666Z,66.77
2023-02-15T17:38:37.532Z,60.73
2023-02-15T17:41:05.092Z,66.03
2023-02-15T17:43:32.474Z,52.47
2023-02-15T17:45:59.726Z,57.43
2023-02-15T17:48:32.310Z,58.97
2023-02-15T17:51:01.270Z,63.50
2023-02-15T17:53:28.546Z,57.53
2023-02-15T17:55:55.414Z,54.23
2023-02-15T17:58:22.896Z,56.30
2023-02-15T18:01:10.330Z,55.53
2023-02-15T18:04:02.698Z,54.30
2023-02-15T18:06:49.035Z,57.27
2023-02-15T18:09:37.267Z,58.57
2023-02-15T18:12:18.502Z,52.63
2023-02-15T18:14:45.314Z,54.03
2023-02-15T18:17:14.113Z,54.43
2023-02-15T18:19:43.909Z,62.03
2023-02-15T18:22:12.026Z,56.40
2023-02-15T18:24:38.995Z,58.00
2023-02-15T18:27:06.883Z,63.07
2023-02-15T18:29:33.801Z,58.07
2023-02-15T18:32:01.604Z,57.63
2023-02-15T18:34:32.002Z,57.87
2023-02-15T18:37:02.350Z,54.30
2023-02-15T18:39:38.386Z,54.27
2023-02-15T18:42:06.224Z,53.67
2023-02-15T18:44:33.441Z,57.50
2023-02-15T18:47:00.323Z,51.23
2023-02-15T18:49:27.421Z,50.83
2023-02-15T18:51:54.485Z,54.77
2023-02-15T18:54:24.927Z,52.77
2023-02-15T18:56:55.740Z,51.17
2023-02-15T18:59:24.103Z,52.90
2023-02-15T19:01:51.362Z,54.33
2023-02-15T19:04:18.499Z,50.07
2023-02-15T19:06:47.442Z,59.33
2023-02-15T19:09:17.187Z,59.50
2023-02-15T19:11:50.235Z,54.67
2023-02-15T19:14:25.234Z,53.87
2023-02-15T19:16:52.635Z,57.10
2023-02-15T19:19:19.905Z,58.27
2023-02-15T19:21:46.969Z,55.50
2023-02-15T19:24:18.311Z,53.83
2023-02-15T19:26:48.700Z,63.33
2023-02-15T19:29:21.917Z,58.10
2023-02-15T19:31:48.975Z,62.83
2023-02-15T19:34:18.000Z,59.10
2023-02-15T19:36:47.766Z,64.57
2023-02-15T19:39:25.568Z,65.43
2023-02-15T19:41:54.229Z,63.50
2023-02-15T19:44:21.716Z,64.63
2023-02-15T19:46:48.869Z,64.43
2023-02-15T19:49:15.924Z,60.53
2023-02-15T19:51:43.024Z,62.07
2023-02-15T19:54:37.184Z,77.27
2023-02-15T19:57:05.735Z,73.97
2023-02-15T19:59:34.222Z,68.90
2023-02-15T20:02:01.108Z,76.73
2023-02-15T20:04:28.460Z,75.33
2023-02-15T20:06:57.815Z,77.07
2023-02-15T20:09:28.838Z,80.50
2023-02-15T20:11:56.278Z,74.60
2023-02-15T20:14:24.833Z,78.10
2023-02-15T20:16:52.201Z,85.83
2023-02-15T20:19:19.270Z,84.33
2023-02-15T20:21:51.924Z,81.70
2023-02-15T20:24:21.572Z,83.33
2023-02-15T20:26:48.691Z,92.20
2023-02-15T20:29:16.758Z,95.10
2023-02-15T20:31:45.551Z,93.80
2023-02-15T20:34:12.657Z,96.13
2023-02-15T20:36:41.317Z,85.47
2023-02-15T20:39:15.533Z,88.80
2023-02-15T20:41:47.544Z,79.27
2023-02-15T20:44:23.046Z,98.83
2023-02-15T20:46:54.239Z,91.20
2023-02-15T20:49:21.884Z,83.60
2023-02-15T20:51:48.871Z,84.60
2023-02-15T20:54:18.162Z,77.73
2023-02-15T20:56:45.424Z,86.30
2023-02-15T20:59:26.378Z,90.30
2023-02-15T21:01:59.200Z,90.77
2023-02-15T21:04:31.908Z,89.70
2023-02-15T21:06:59.150Z,83.80
2023-02-15T21:09:26.080Z,80.03
2023-02-15T21:11:55.329Z,80.07
2023-02-15T21:14:25.767Z,81.67
2023-02-15T21:16:53.151Z,76.90
2023-02-15T21:19:23.411Z,82.40
2023-02-15T21:21:52.068Z,76.27
2023-02-15T21:24:23.193Z,85.67
2023-02-15T21:26:50.814Z,85.80
2023-02-15T21:29:18.487Z,87.90
2023-02-15T21:31:46.226Z,76.03
2023-02-15T21:34:13.855Z,87.20
2023-02-15T21:36:43.296Z,74.80
2023-02-15T21:39:15.771Z,86.53
2023-02-15T21:42:04.250Z,81.97
2023-02-15T21:44:50.148Z,79.53
2023-02-15T21:47:43.154Z,86.07
2023-02-15T21:50:30.796Z,85.50
2023-02-15T21:52:59.507Z,93.67
2023-02-15T21:55:26.522Z,102.93
2023-02-15T21:57:53.585Z,93.93
2023-02-15T22:00:22.501Z,97.40
2023-02-15T22:02:52.002Z,100.37
2023-02-15T22:05:20.908Z,93.90
2023-02-15T22:07:48.114Z,93.97
2023-02-15T22:10:17.466Z,104.67
2023-02-15T22:12:45.059Z,101.07
2023-02-15T22:15:19.565Z,103.40
2023-02-15T22:17:46.536Z,89.93
2023-02-15T22:20:15.629Z,91.93
2023-02-15T22:22:42.490Z,93.67
2023-02-15T22:25:13.408Z,107.00
2023-02-15T22:27:43.108Z,89.37
2023-02-15T22:30:20.330Z,92.23
2023-02-15T22:32:47.548Z,106.63
2023-02-15T22:35:18.115Z,98.07
2023-02-15T22:37:44.986Z,89.23
2023-02-15T22:40:15.751Z,102.27
2023-02-15T22:42:47.332Z,91.70
2023-02-15T22:45:18.312Z,92.20
2023-02-15T22:47:45.996Z,97.33
2023-02-15T22:50:19.323Z,91.20
2023-02-15T22:52:46.382Z,91.77
2023-02-15T22:55:16.001Z,91.33
2023-02-15T22:57:46.423Z,85.87
2023-02-15T23:00:18.378Z,83.30
2023-02-15T23:02:45.732Z,92.90
2023-02-15T23:05:20.526Z,88.13
2023-02-15T23:07:48.909Z,99.50
2023-02-15T23:10:22.541Z,92.17
2023-02-15T23:13:18.825Z,94.20
2023-02-15T23:15:51.285Z,98.03
2023-02-15T23:18:20.937Z,94.13
2023-02-15T23:20:50.449Z,103.30
2023-02-15T23:23:18.288Z,96.77
2023-02-15T23:25:45.191Z,91.97
2023-02-15T23:28:23.350Z,112.60
2023-02-15T23:30:50.657Z,109.20
2023-02-15T23:33:21.108Z,117.33
2023-02-15T23:35:48.596Z,108.22
2023-02-15T23:38:24.170Z,102.10
2023-02-15T23:41:13.756Z,132.17
2023-02-15T23:43:44.357Z,127.23
2023-02-15T23:46:23.083Z,100.47
2023-02-15T23:48:50.141Z,108.67
2023-02-15T23:51:17.422Z,119.30
2023-02-15T23:53:44.407Z,131.47
2023-02-15T23:56:13.332Z,110.70
2023-02-15T23:58:43.906Z,143.57
